.
WxDataArchive / Data Records for 2015-06-01
2015-05-31 June 2015 2015-06-02

Data Records for Monday, 01 June 2015

Time	Temp	Chill	HIndex	Humid	Dewpt	 Wind 	HiWind	WindDir	Rain 	Barom
-----	----	-----	------	-----	-----	------	------	-------	-----	-----
00:00	50.7	50.7	50.7	84	46.0	0	2	112	0.00	30.171 
00:05	50.7	50.7	50.7	85	46.4	1	4	112	0.00	30.171 
00:10	50.5	50.5	50.5	84	45.8	1	3	112	0.00	30.171 
00:15	50.4	50.4	50.4	84	45.7	1	4	112	0.00	30.175 
00:20	50.2	50.2	50.2	83	45.2	1	4	112	0.00	30.175 
00:25	49.9	49.9	49.9	82	44.6	1	7	90	0.00	30.175 
00:30	49.9	49.9	49.9	82	44.6	1	5	90	0.00	30.174 
00:35	49.8	49.8	49.8	82	44.5	1	4	68	0.00	30.174 
00:40	49.8	49.8	49.8	83	44.8	1	4	68	0.00	30.174 
00:45	49.6	49.6	49.6	83	44.7	0	2	90	0.00	30.175 
00:50	49.5	49.5	49.5	83	44.6	1	5	22	0.00	30.175 
00:55	49.4	49.4	49.4	83	44.5	1	5	112	0.00	30.175 
01:00	49.4	49.4	49.4	83	44.5	0	4	90	0.00	30.180 
01:05	49.2	49.2	49.2	84	44.6	0	2	90	0.00	30.180 
01:10	49.1	49.1	49.1	84	44.5	1	3	68	0.00	30.180 
01:15	49.1	49.1	49.1	84	44.5	0	4	68	0.00	30.181 
01:20	48.9	48.9	48.9	84	44.3	1	4	90	0.00	30.181 
01:25	48.9	48.9	48.9	84	44.3	1	3	68	0.00	30.181 
01:30	48.9	48.9	48.9	84	44.3	0	2	68	0.00	30.180 
01:35	49.1	49.1	49.1	84	44.5	0	3	68	0.00	30.180 
01:40	49.1	49.1	49.1	84	44.5	0	2	68	0.00	30.180 
01:45	49.1	49.1	49.1	84	44.5	0	1	68	0.00	30.177 
01:50	49.1	49.1	49.1	84	44.5	0	2	68	0.00	30.177 
01:55	49.2	49.2	49.2	84	44.6	0	1	68	0.00	30.177 
02:00	49.2	49.2	49.2	84	44.6	0	3	68	0.00	30.173 
02:05	49.1	49.1	49.1	84	44.5	0	1	68	0.00	30.173 
02:10	49.2	49.2	49.2	84	44.6	0	1	68	0.00	30.173 
02:15	49.2	49.2	49.2	84	44.6	0	2	68	0.00	30.174 
02:20	49.2	49.2	49.2	84	44.6	0	3	68	0.00	30.174 
02:25	49.1	49.1	49.1	84	44.5	0	2	68	0.00	30.174 
02:30	49.1	49.1	49.1	84	44.5	0	3	68	0.00	30.172 
02:35	49.1	49.1	49.1	84	44.5	0	3	135	0.00	30.172 
02:40	49.1	49.1	49.1	84	44.5	0	1	135	0.00	30.172 
02:45	49.1	49.1	49.1	84	44.5	1	4	135	0.00	30.169 
02:50	49.1	49.1	49.1	83	44.2	3	9	90	0.00	30.169 
02:55	49.1	49.1	49.1	82	43.8	1	5	90	0.00	30.169 
03:00	49.2	49.2	49.2	82	43.9	0	2	90	0.00	30.164 
03:05	49.2	49.2	49.2	82	43.9	1	4	90	0.00	30.164 
03:10	49.2	49.2	49.2	81	43.6	1	3	90	0.00	30.164 
03:15	49.1	49.1	49.1	81	43.5	1	5	90	0.00	30.160 
03:20	49.1	49.1	49.1	81	43.5	1	5	112	0.00	30.160 
03:25	49.1	49.1	49.1	81	43.5	1	4	112	0.00	30.160 
03:30	49.1	49.1	49.1	81	43.5	1	4	112	0.00	30.160 
03:35	49.1	49.1	49.1	81	43.5	1	3	90	0.00	30.160 
03:40	49.1	49.1	49.1	80	43.2	1	7	112	0.00	30.160 
03:45	49.1	49.1	49.1	80	43.2	1	4	90	0.00	30.156 
03:50	49.1	49.1	49.1	80	43.2	1	4	90	0.00	30.156 
03:55	48.9	48.9	48.9	79	42.7	1	4	90	0.00	30.156 
04:00	48.9	48.9	48.9	79	42.7	2	4	90	0.00	30.149 
04:05	49.1	49.1	49.1	80	43.2	1	4	90	0.00	30.149 
04:10	49.1	49.1	49.1	80	43.2	1	3	90	0.00	30.149 
04:15	49.1	49.1	49.1	80	43.2	0	2	90	0.00	30.157 
04:20	49.1	49.1	49.1	80	43.2	1	3	90	0.00	30.157 
04:25	49.1	49.1	49.1	80	43.2	1	3	90	0.00	30.157 
04:30	49.1	49.1	49.1	80	43.2	0	3	90	0.00	30.155 
04:35	48.9	48.9	48.9	80	43.0	0	2	90	0.00	30.155 
04:40	48.9	48.9	48.9	81	43.3	0	3	90	0.00	30.155 
04:45	48.9	48.9	48.9	81	43.3	0	3	90	0.00	30.157 
04:50	48.9	48.9	48.9	81	43.3	0	2	90	0.00	30.157 
04:55	48.9	48.9	48.9	81	43.3	1	3	90	0.00	30.157 
05:00	48.9	48.9	48.9	81	43.3	0	3	90	0.00	30.158 
05:05	48.9	48.9	48.9	81	43.3	1	4	90	0.00	30.158 
05:10	48.9	48.9	48.9	81	43.3	1	4	90	0.00	30.158 
05:15	48.9	48.9	48.9	81	43.3	1	4	90	0.00	30.163 
05:20	48.9	48.9	48.9	82	43.6	1	4	90	0.00	30.163 
05:25	48.9	48.9	48.9	82	43.6	0	3	90	0.00	30.163 
05:30	48.9	48.9	48.9	82	43.6	1	4	90	0.00	30.174 
05:35	48.8	48.8	48.8	81	43.2	1	4	90	0.00	30.174 
05:40	48.8	48.8	48.8	81	43.2	0	2	90	0.00	30.174 
05:45	48.8	48.8	48.8	82	43.6	0	3	90	0.00	30.176 
05:50	48.8	48.8	48.8	82	43.6	0	2	90	0.00	30.176 
05:55	48.8	48.8	48.8	82	43.6	0	1	90	0.00	30.176 
06:00	48.8	48.8	48.8	82	43.6	0	1	90	0.00	30.178 
06:05	48.8	48.8	48.8	82	43.6	0	2	90	0.00	30.178 
06:10	48.8	48.8	48.8	82	43.6	0	2	90	0.00	30.178 
06:15	48.8	48.8	48.8	83	43.9	0	2	90	0.00	30.178 
06:20	48.8	48.8	48.8	83	43.9	0	1	90	0.00	30.178 
06:25	48.8	48.8	48.8	83	43.9	0	2	90	0.00	30.178 
06:30	48.8	48.8	48.8	83	43.9	0	2	90	0.00	30.176 
06:35	48.8	48.8	48.8	83	43.9	0	2	90	0.00	30.176 
06:40	48.8	48.8	48.8	83	43.9	0	2	90	0.00	30.176 
06:45	48.8	48.8	48.8	83	43.9	0	3	90	0.00	30.174 
06:50	48.6	48.6	48.6	83	43.7	1	4	90	0.00	30.174 
06:55	48.6	48.6	48.6	82	43.4	0	3	90	0.00	30.174 
07:00	48.6	48.6	48.6	82	43.4	0	2	90	0.00	30.179 
07:05	48.8	48.8	48.8	83	43.9	0	1	90	0.00	30.179 
07:10	48.8	48.8	48.8	83	43.9	0	1	90	0.00	30.179 
07:15	48.8	48.8	48.8	82	43.6	0	2	90	0.00	30.178 
07:20	48.9	48.9	48.9	82	43.6	0	2	90	0.00	30.178 
07:25	48.9	48.9	48.9	82	43.6	0	2	90	0.00	30.178 
07:30	49.1	49.1	49.1	82	43.8	0	1	90	0.00	30.178 
07:35	49.2	49.2	49.2	81	43.6	0	3	90	0.00	30.178 
07:40	49.2	49.2	49.2	81	43.6	1	3	90	0.00	30.178 
07:45	49.2	49.2	49.2	80	43.3	1	4	90	0.00	30.180 
07:50	49.4	49.4	49.4	80	43.5	1	4	270	0.00	30.180 
07:55	49.5	49.5	49.5	79	43.3	0	3	270	0.00	30.180 
08:00	49.5	49.5	49.5	79	43.3	0	2	270	0.00	30.188 
08:05	49.6	49.6	49.6	78	43.0	1	4	270	0.00	30.188 
08:10	49.8	49.8	49.8	78	43.2	0	2	112	0.00	30.188 
08:15	49.9	49.9	49.9	77	43.0	1	4	112	0.00	30.194 
08:20	50.1	50.1	50.1	77	43.2	1	4	90	0.00	30.194 
08:25	50.4	50.4	50.4	77	43.5	1	3	90	0.00	30.194 
08:30	50.5	50.5	50.5	77	43.6	1	4	90	0.00	30.191 
08:35	50.7	50.7	50.7	76	43.4	1	4	112	0.00	30.191 
08:40	50.7	50.7	50.7	77	43.8	0	2	112	0.00	30.191 
08:45	50.8	50.8	50.8	77	43.9	1	3	112	0.00	30.189 
08:50	51.0	51.0	51.0	77	44.0	0	3	112	0.00	30.189 
08:55	51.0	51.0	51.0	76	43.7	1	7	112	0.00	30.189 
09:00	51.0	51.0	51.0	76	43.7	0	3	135	0.00	30.191 
09:05	51.0	51.0	51.0	76	43.7	0	3	90	0.00	30.191 
09:10	51.1	51.1	51.1	77	44.1	1	3	90	0.00	30.191 
09:15	51.3	51.3	51.3	77	44.3	1	4	90	0.00	30.194 
09:20	51.4	51.4	51.4	77	44.4	0	2	90	0.00	30.194 
09:25	51.4	51.4	51.4	77	44.4	1	4	90	0.00	30.194 
09:30	51.4	51.4	51.4	76	44.1	0	2	90	0.00	30.193 
09:35	51.6	51.6	51.6	77	44.6	1	5	90	0.00	30.193 
09:40	51.7	51.7	51.7	76	44.4	1	7	90	0.00	30.193 
09:45	52.0	52.0	52.0	77	45.0	1	3	112	0.00	30.193 
09:50	52.2	52.2	52.2	76	44.9	1	4	112	0.00	30.193 
09:55	52.3	52.3	52.3	76	45.0	1	4	112	0.00	30.193 
10:00	52.3	52.3	52.3	76	45.0	1	3	112	0.00	30.191 
10:05	52.3	52.3	52.3	76	45.0	1	5	112	0.00	30.191 
10:10	52.5	52.5	52.5	76	45.2	1	3	112	0.00	30.191 
10:15	52.5	52.5	52.5	77	45.5	1	7	112	0.00	30.189 
10:20	52.6	52.6	52.6	76	45.3	1	4	90	0.00	30.189 
10:25	52.5	52.5	52.5	76	45.2	1	4	90	0.00	30.189 
10:30	52.5	52.5	52.5	76	45.2	1	4	90	0.00	30.189 
10:35	52.8	52.8	52.8	76	45.4	1	4	90	0.00	30.189 
10:40	52.9	52.9	52.9	77	45.9	1	6	68	0.00	30.189 
10:45	53.1	53.1	53.1	76	45.7	1	2	68	0.00	30.186 
10:50	53.1	53.1	53.1	76	45.7	1	5	68	0.00	30.186 
10:55	53.2	53.2	53.2	76	45.8	1	5	135	0.00	30.186 
11:00	53.3	53.3	53.3	76	45.9	2	7	68	0.00	30.186 
11:05	53.5	53.5	53.5	75	45.8	1	6	90	0.00	30.186 
11:10	53.6	53.6	53.6	76	46.2	1	3	90	0.00	30.186 
11:15	53.8	53.8	53.8	75	46.1	1	3	45	0.00	30.184 
11:20	53.8	53.8	53.8	74	45.7	1	4	135	0.00	30.184 
11:25	53.9	53.9	53.9	75	46.2	1	4	112	0.00	30.184 
11:30	54.1	54.1	54.1	76	46.7	0	2	112	0.00	30.187 
11:35	54.4	54.4	54.4	76	47.0	1	5	90	0.00	30.187 
11:40	54.4	54.4	54.4	75	46.6	1	5	90	0.00	30.187 
11:45	54.5	54.5	54.5	75	46.7	1	4	112	0.00	30.188 
11:50	54.5	54.5	54.5	75	46.7	1	5	90	0.00	30.188 
11:55	54.7	54.7	54.7	75	46.9	1	3	22	0.00	30.188 
12:00	55.0	55.0	55.0	75	47.2	1	5	90	0.00	30.189 
12:05	55.6	55.6	55.6	75	47.8	1	4	90	0.00	30.189 
12:10	55.6	55.6	55.6	74	47.4	1	4	0	0.00	30.189 
12:15	55.7	55.7	55.7	73	47.2	2	6	90	0.00	30.192 
12:20	55.9	55.9	55.9	74	47.7	2	5	112	0.00	30.192 
12:25	56.3	56.3	56.3	74	48.1	0	3	112	0.00	30.192 
12:30	56.2	56.2	56.2	74	48.0	0	3	68	0.00	30.191 
12:35	56.2	56.2	56.2	74	48.0	1	3	90	0.00	30.191 
12:40	56.2	56.2	56.2	73	47.7	1	5	270	0.00	30.191 
12:45	56.5	56.5	56.5	73	47.9	1	4	90	0.00	30.190 
12:50	56.6	56.6	56.6	73	48.0	1	4	90	0.00	30.190 
12:55	56.6	56.6	56.6	73	48.0	1	4	90	0.00	30.190 
13:00	56.6	56.6	56.6	73	48.0	0	3	338	0.00	30.188 
13:05	56.6	56.6	56.6	73	48.0	1	5	0	0.00	30.188 
13:10	56.7	56.7	56.7	73	48.1	1	5	112	0.00	30.188 
13:15	56.7	56.7	56.7	73	48.1	2	6	112	0.00	30.187 
13:20	56.7	56.7	56.7	73	48.1	2	4	90	0.00	30.187 
13:25	56.6	56.6	56.6	73	48.0	2	6	90	0.00	30.187 
13:30	56.7	56.7	56.7	73	48.1	2	5	90	0.00	30.184 
13:35	56.9	56.9	56.9	74	48.7	1	4	90	0.00	30.184 
13:40	57.2	57.2	57.2	73	48.6	1	4	90	0.00	30.184 
13:45	57.3	57.3	57.3	73	48.7	1	3	90	0.00	30.182 
13:50	57.3	57.3	57.3	72	48.3	2	4	90	0.00	30.182 
13:55	57.3	57.3	57.3	72	48.3	1	4	90	0.00	30.182 
14:00	57.5	57.5	57.5	71	48.2	2	5	90	0.00	30.180 
14:05	57.5	57.5	57.5	70	47.8	1	5	90	0.00	30.180 
14:10	57.6	57.6	57.6	72	48.6	0	2	90	0.00	30.180 
14:15	57.8	57.8	57.8	72	48.8	0	4	90	0.00	30.181 
14:20	58.1	58.1	58.1	71	48.7	1	4	112	0.00	30.181 
14:25	58.4	58.4	58.4	72	49.4	0	3	112	0.00	30.181 
14:30	58.6	58.6	58.6	71	49.2	1	4	112	0.00	30.180 
14:35	58.4	58.4	58.4	70	48.7	0	2	112	0.00	30.180 
14:40	58.4	58.4	58.4	71	49.0	1	3	112	0.00	30.180 
14:45	58.4	58.4	58.4	71	49.0	0	4	112	0.00	30.182 
14:50	58.3	58.3	58.3	70	48.6	1	4	135	0.00	30.182 
14:55	58.3	58.3	58.3	70	48.6	2	5	90	0.00	30.182 
15:00	58.3	58.3	58.3	71	48.9	1	3	90	0.00	30.175 
15:05	58.4	58.4	58.4	70	48.7	2	4	90	0.00	30.175 
15:10	58.6	58.6	58.6	72	49.6	0	2	90	0.00	30.175 
15:15	58.6	58.6	58.6	70	48.8	1	4	90	0.00	30.173 
15:20	58.9	58.9	58.9	71	49.5	1	4	90	0.00	30.173 
15:25	59.2	59.2	59.2	71	49.8	1	3	90	0.00	30.173 
15:30	59.2	59.2	59.2	70	49.4	2	5	90	0.00	30.172 
15:35	59.0	59.0	59.0	69	48.8	2	6	90	0.00	30.172 
15:40	59.2	59.2	59.2	70	49.4	0	3	68	0.00	30.172 
15:45	59.2	59.2	59.2	69	49.0	2	6	90	0.00	30.169 
15:50	59.2	59.2	59.2	69	49.0	1	5	90	0.00	30.169 
15:55	59.3	59.3	59.3	69	49.1	1	4	90	0.00	30.169 
16:00	59.3	59.3	59.3	69	49.1	1	3	90	0.00	30.167 
16:05	59.3	59.3	59.3	69	49.1	1	5	112	0.00	30.167 
16:10	59.2	59.2	59.2	68	48.6	2	6	90	0.00	30.167 
16:15	59.3	59.3	59.3	71	49.9	1	4	90	0.00	30.166 
16:20	59.5	59.5	59.5	69	49.3	0	2	90	0.00	30.166 
16:25	59.6	59.6	59.6	69	49.4	1	5	90	0.00	30.166 
16:30	59.6	59.6	59.6	69	49.4	1	4	90	0.00	30.155 
16:35	59.6	59.6	59.6	69	49.4	2	6	90	0.00	30.155 
16:40	59.5	59.5	59.5	69	49.3	2	6	90	0.00	30.155 
16:45	59.6	59.6	59.6	70	49.8	1	6	90	0.00	30.150 
16:50	59.6	59.6	59.6	69	49.4	2	4	112	0.00	30.150 
16:55	59.8	59.8	59.8	70	50.0	1	4	112	0.00	30.150 
17:00	59.8	59.8	59.8	69	49.6	1	4	112	0.00	30.146 
17:05	59.6	59.6	59.6	67	48.6	2	6	90	0.00	30.146 
17:10	59.8	59.8	59.8	69	49.6	1	3	90	0.00	30.146 
17:15	59.8	59.8	59.8	68	49.2	1	5	90	0.00	30.143 
17:20	59.9	59.9	59.9	69	49.7	1	4	90	0.00	30.143 
17:25	59.9	59.9	59.9	68	49.3	0	2	90	0.00	30.143 
17:30	59.9	59.9	59.9	68	49.3	2	4	90	0.00	30.148 
17:35	59.8	59.8	59.8	68	49.2	1	4	112	0.00	30.148 
17:40	59.8	59.8	59.8	66	48.4	1	2	112	0.00	30.148 
17:45	59.8	59.8	59.8	67	48.8	1	4	135	0.00	30.145 
17:50	59.8	59.8	59.8	69	49.6	1	4	90	0.00	30.145 
17:55	59.8	59.8	59.8	67	48.8	2	4	90	0.00	30.145 
18:00	59.8	59.8	59.8	69	49.6	0	2	90	0.00	30.142 
18:05	59.8	59.8	59.8	68	49.2	0	2	90	0.00	30.142 
18:10	59.8	59.8	59.8	67	48.8	1	5	90	0.00	30.142 
18:15	59.9	59.9	59.9	67	48.9	1	4	90	0.00	30.140 
18:20	60.2	60.2	60.2	67	49.2	1	4	90	0.00	30.140 
18:25	60.2	60.2	60.2	66	48.8	1	4	90	0.00	30.140 
18:30	60.2	60.2	60.2	65	48.4	1	4	112	0.00	30.141 
18:35	60.4	60.4	60.4	67	49.4	2	6	112	0.00	30.141 
18:40	60.4	60.4	60.4	66	49.0	1	4	90	0.00	30.141 
18:45	60.2	60.2	60.2	66	48.8	1	5	90	0.00	30.145 
18:50	60.2	60.2	60.2	68	49.6	1	3	90	0.00	30.145 
18:55	60.2	60.2	60.2	67	49.2	1	4	90	0.00	30.145 
19:00	60.2	60.2	60.2	66	48.8	1	5	90	0.00	30.148 
19:05	60.2	60.2	60.2	67	49.2	1	5	90	0.00	30.148 
19:10	60.2	60.2	60.2	66	48.8	2	5	90	0.00	30.148 
19:15	60.1	60.1	60.1	65	48.3	1	6	112	0.00	30.150 
19:20	60.1	60.1	60.1	66	48.7	1	4	90	0.00	30.150 
19:25	59.9	59.9	59.9	65	48.1	0	2	90	0.00	30.150 
19:30	60.1	60.1	60.1	66	48.7	1	5	68	0.00	30.154 
19:35	59.9	59.9	59.9	65	48.1	1	4	90	0.00	30.154 
19:40	59.6	59.6	59.6	66	48.2	1	4	90	0.00	30.154 
19:45	59.5	59.5	59.5	67	48.5	1	3	90	0.00	30.154 
19:50	59.5	59.5	59.5	67	48.5	1	4	68	0.00	30.154 
19:55	59.5	59.5	59.5	69	49.3	1	3	68	0.00	30.154 
20:00	59.5	59.5	59.5	67	48.5	1	3	90	0.00	30.155 
20:05	59.3	59.3	59.3	67	48.3	1	5	90	0.00	30.155 
20:10	59.3	59.3	59.3	67	48.3	1	4	68	0.00	30.155 
20:15	59.2	59.2	59.2	67	48.2	1	3	45	0.00	30.158 
20:20	59.2	59.2	59.2	67	48.2	1	3	22	0.00	30.158 
20:25	59.2	59.2	59.2	67	48.2	1	3	22	0.00	30.158 
20:30	59.2	59.2	59.2	67	48.2	0	2	22	0.00	30.156 
20:35	59.0	59.0	59.0	68	48.5	0	1	22	0.00	30.156 
20:40	58.9	58.9	58.9	68	48.4	0	1	22	0.00	30.156 
20:45	58.7	58.7	58.7	69	48.6	0	1	22	0.00	30.158 
20:50	58.4	58.4	58.4	70	48.7	0	1	22	0.00	30.158 
20:55	58.3	58.3	58.3	70	48.6	0	1	22	0.00	30.158 
21:00	58.0	58.0	58.0	71	48.6	0	0	---	0.00	30.161 
21:05	57.6	57.6	57.6	71	48.3	0	0	---	0.00	30.161 
21:10	57.5	57.5	57.5	72	48.5	0	0	---	0.00	30.161 
21:15	57.2	57.2	57.2	73	48.6	0	0	---	0.00	30.162 
21:20	56.9	56.9	56.9	73	48.3	0	0	---	0.00	30.162 
21:25	56.6	56.6	56.6	74	48.4	0	0	---	0.00	30.162 
21:30	56.2	56.2	56.2	75	48.4	0	0	---	0.00	30.158 
21:35	55.9	55.9	55.9	76	48.4	0	0	---	0.00	30.158 
21:40	55.4	55.4	55.4	77	48.3	0	0	---	0.00	30.158 
21:45	55.1	55.1	55.1	78	48.4	0	0	---	0.00	30.164 
21:50	54.8	54.8	54.8	79	48.4	0	0	---	0.00	30.164 
21:55	54.5	54.5	54.5	80	48.5	0	0	---	0.00	30.164 
22:00	54.2	54.2	54.2	81	48.5	0	0	---	0.00	30.169 
22:05	53.9	53.9	53.9	81	48.2	0	0	---	0.00	30.169 
22:10	53.6	53.6	53.6	82	48.2	0	0	---	0.00	30.169 
22:15	53.5	53.5	53.5	83	48.5	0	0	---	0.00	30.174 
22:20	53.2	53.2	53.2	83	48.2	0	0	---	0.00	30.174 
22:25	53.1	53.1	53.1	83	48.1	0	0	---	0.00	30.174 
22:30	52.8	52.8	52.8	84	48.1	0	0	---	0.00	30.173 
22:35	52.5	52.5	52.5	84	47.8	0	0	---	0.00	30.173 
22:40	52.2	52.2	52.2	85	47.8	0	0	---	0.00	30.173 
22:45	51.9	51.9	51.9	87	48.2	0	1	22	0.00	30.184 
22:50	51.9	51.9	51.9	88	48.5	0	1	22	0.00	30.184 
22:55	52.0	52.0	52.0	88	48.6	0	0	---	0.00	30.184 
23:00	52.2	52.2	52.2	88	48.8	0	0	---	0.00	30.182 
23:05	52.3	52.3	52.3	88	48.9	0	1	22	0.00	30.182 
23:10	52.5	52.5	52.5	88	49.0	0	0	---	0.00	30.182 
23:15	52.5	52.5	52.5	88	49.0	0	1	22	0.00	30.175 
23:20	52.5	52.5	52.5	88	49.0	0	1	22	0.00	30.175 
23:25	52.5	52.5	52.5	88	49.0	0	1	22	0.00	30.175 
23:30	52.3	52.3	52.3	88	48.9	0	0	---	0.00	30.178 
23:35	52.2	52.2	52.2	88	48.8	0	0	---	0.00	30.178 
23:40	52.2	52.2	52.2	88	48.8	0	0	---	0.00	30.178 
23:45	52.0	52.0	52.0	88	48.6	0	0	---	0.00	30.173 
23:50	51.9	51.9	51.9	87	48.2	0	0	---	0.00	30.173 
23:55	51.6	51.6	51.6	88	48.2	0	0	---	0.00	30.173 

CoCoRaHS
IN-AL-39
A2 Web Hosting
Creative Commons License
GoDaddy
search engine by freefind advanced

loaded 2018-11-13 17:08:38 • last modified 2010-11-18 10:43:29
Privacy PolicyDisclaimer
• wx.awcolley.com is powered by PmWiki v.2002016 •
• all content (unless otherwise noted) © 2018 A W Colley